createdAt,value
2023-03-05T00:01:03.715Z,214.17544
2023-03-05T00:06:05.535Z,207.24786
2023-03-05T00:11:07.297Z,210.66667
2023-03-05T00:16:09.105Z,219
2023-03-05T00:21:10.741Z,230.51163
2023-03-05T00:26:12.398Z,248.9505
2023-03-05T00:31:14.045Z,255.11111
2023-03-05T00:36:15.694Z,255.11111
2023-03-05T00:41:17.513Z,259.89744
2023-03-05T00:46:19.280Z,263.17098
2023-03-05T00:51:20.760Z,268.21053
2023-03-05T00:56:22.283Z,296
2023-03-05T01:01:23.763Z,302.13953
2023-03-05T01:06:25.521Z,296
2023-03-05T01:11:27.128Z,300.06936
2023-03-05T01:16:28.725Z,300.06936
2023-03-05T01:21:30.247Z,296
2023-03-05T01:26:31.739Z,296
2023-03-05T01:31:33.304Z,296
2023-03-05T01:36:34.873Z,298.02299
2023-03-05T01:41:36.382Z,300.06936
2023-03-05T01:46:38.277Z,298.02299
2023-03-05T01:51:40.124Z,300.06936
2023-03-05T01:56:41.843Z,304.23392
2023-03-05T02:01:43.572Z,302.13953
2023-03-05T02:06:45.300Z,300.06936
2023-03-05T02:11:46.956Z,290.06742
2023-03-05T02:16:48.530Z,276.97297
2023-03-05T02:21:50.067Z,259.89744
2023-03-05T02:26:51.549Z,261.52577
2023-03-05T02:31:53.112Z,259.89744
2023-03-05T02:36:54.615Z,266.51309
2023-03-05T02:41:56.123Z,266.51309
2023-03-05T02:46:57.532Z,266.51309
2023-03-05T02:51:58.984Z,269.92593
2023-03-05T02:57:00.492Z,271.65957
2023-03-05T03:02:01.954Z,275.1828
2023-03-05T03:07:04.092Z,269.92593
2023-03-05T03:12:05.580Z,268.21053
2023-03-05T03:17:07.052Z,269.92593
2023-03-05T03:22:08.691Z,266.51309
2023-03-05T03:27:10.228Z,264.83333
2023-03-05T03:32:11.765Z,261.52577
2023-03-05T03:37:13.295Z,259.89744
2023-03-05T03:42:14.786Z,255.11111
2023-03-05T03:47:16.257Z,250.46766
2023-03-05T03:52:17.723Z,248.9505
2023-03-05T03:57:19.366Z,247.44828
2023-03-05T04:02:20.862Z,243.02913
2023-03-05T04:07:22.408Z,241.58454
2023-03-05T04:12:24.071Z,244.4878
2023-03-05T04:17:25.504Z,243.02913
2023-03-05T04:22:27.063Z,245.96078
2023-03-05T04:27:28.553Z,247.44828
2023-03-05T04:32:30.099Z,252
2023-03-05T04:37:31.625Z,250.46766
2023-03-05T04:42:33.100Z,252
2023-03-05T04:47:34.611Z,250.46766
2023-03-05T04:52:36.098Z,255.11111
2023-03-05T04:57:37.841Z,252
2023-03-05T05:02:39.379Z,252
2023-03-05T05:07:41.177Z,256.69036
2023-03-05T05:12:42.668Z,250.46766
2023-03-05T05:17:44.127Z,250.46766
2023-03-05T05:22:45.671Z,255.11111
2023-03-05T05:27:47.204Z,255.11111
2023-03-05T05:32:48.688Z,252
2023-03-05T05:37:50.360Z,245.96078
2023-03-05T05:42:51.857Z,253.54774
2023-03-05T05:47:53.418Z,245.96078
2023-03-05T05:52:54.930Z,256.69036
2023-03-05T05:57:56.426Z,253.54774
2023-03-05T06:02:57.984Z,255.11111
2023-03-05T06:07:59.535Z,269.92593
2023-03-05T06:13:01.049Z,282.46154
2023-03-05T06:18:02.548Z,306.35294
2023-03-05T06:23:04.030Z,326.6087
2023-03-05T06:28:05.521Z,324.24691
2023-03-05T06:33:07.278Z,326.6087
2023-03-05T06:38:09.180Z,306.35294
2023-03-05T06:43:10.940Z,319.60976
2023-03-05T06:48:12.703Z,312.86228
2023-03-05T06:53:14.513Z,326.6087
2023-03-05T06:58:16.168Z,326.6087
2023-03-05T07:03:17.892Z,338.87179
2023-03-05T07:08:19.680Z,321.91411
2023-03-05T07:13:21.476Z,331.42138
2023-03-05T07:18:23.253Z,349.26316
2023-03-05T07:23:25.037Z,333.87342
2023-03-05T07:28:26.783Z,333.87342
2023-03-05T07:33:28.274Z,329
2023-03-05T07:38:29.834Z,336.35669
2023-03-05T07:43:31.596Z,333.87342
2023-03-05T07:48:33.392Z,336.35669
2023-03-05T07:53:35.167Z,341.41935
2023-03-05T07:58:36.941Z,310.66667
2023-03-05T08:03:38.646Z,338.87179
2023-03-05T08:08:40.441Z,341.41935
2023-03-05T08:13:42.186Z,333.87342
2023-03-05T08:18:43.987Z,338.87179
2023-03-05T08:23:45.976Z,319.60976
2023-03-05T08:28:47.715Z,349.26316
2023-03-05T08:33:49.163Z,351.94702
2023-03-05T08:38:50.771Z,354.66667
2023-03-05T08:43:52.313Z,344
2023-03-05T08:48:53.806Z,360.21622
2023-03-05T08:53:55.354Z,354.66667
2023-03-05T08:58:56.925Z,357.42282
2023-03-05T09:03:58.428Z,354.66667
2023-03-05T09:08:59.862Z,384
2023-03-05T09:14:01.373Z,349.26316
2023-03-05T09:19:03.017Z,351.94702
2023-03-05T09:24:04.688Z,329
2023-03-05T09:29:06.223Z,365.91781
2023-03-05T09:34:07.964Z,354.66667
2023-03-05T09:39:09.857Z,344
2023-03-05T09:44:11.585Z,354.66667
2023-03-05T09:49:13.340Z,360.21622
2023-03-05T09:54:15.108Z,371.77778
2023-03-05T09:59:16.861Z,349.26316
2023-03-05T10:04:18.726Z,363.04762
2023-03-05T10:09:20.707Z,368.82759
2023-03-05T10:14:22.471Z,363.04762
2023-03-05T10:19:24.224Z,368.82759
2023-03-05T10:24:26.015Z,380.87943
2023-03-05T10:29:27.796Z,387.16547
2023-03-05T10:34:29.438Z,371.77778
2023-03-05T10:39:31.299Z,380.87943
2023-03-05T10:44:32.961Z,384
2023-03-05T10:49:34.714Z,371.77778
2023-03-05T10:54:36.481Z,377.80282
2023-03-05T10:59:38.105Z,377.80282
2023-03-05T11:04:39.720Z,393.63504
2023-03-05T11:09:41.559Z,390.37681
2023-03-05T11:14:43.216Z,380.87943
2023-03-05T11:19:44.851Z,390.37681
2023-03-05T11:24:46.704Z,377.80282
2023-03-05T11:29:48.401Z,377.80282
2023-03-05T11:34:50.247Z,400.2963
2023-03-05T11:39:51.789Z,396.94118
2023-03-05T11:44:53.288Z,384
2023-03-05T11:49:54.792Z,377.80282
2023-03-05T11:54:56.327Z,384
2023-03-05T11:59:57.826Z,400.2963
2023-03-05T12:04:59.573Z,363.04762
2023-03-05T12:10:01.464Z,400.2963
2023-03-05T12:15:03.208Z,417.84615
2023-03-05T12:20:04.925Z,390.37681
2023-03-05T12:25:06.743Z,380.87943
2023-03-05T12:30:08.471Z,396.94118
2023-03-05T12:35:10.137Z,390.37681
2023-03-05T12:40:11.966Z,400.2963
2023-03-05T12:45:13.708Z,377.80282
2023-03-05T12:50:15.465Z,387.16547
2023-03-05T12:55:17.266Z,390.37681
2023-03-05T13:00:19.012Z,390.37681
2023-03-05T13:05:20.777Z,390.37681
2023-03-05T13:10:22.594Z,387.16547
2023-03-05T13:15:24.321Z,368.82759
2023-03-05T13:20:26.045Z,380.87943
2023-03-05T13:25:27.838Z,387.16547
2023-03-05T13:30:29.598Z,371.77778
2023-03-05T13:35:31.437Z,380.87943
2023-03-05T13:40:33.277Z,374.76923
2023-03-05T13:45:35.192Z,357.42282
2023-03-05T13:50:36.952Z,374.76923
2023-03-05T13:55:38.731Z,374.76923
2023-03-05T14:00:40.512Z,374.76923
2023-03-05T14:05:42.236Z,384
2023-03-05T14:10:44.032Z,387.16547
2023-03-05T14:15:45.814Z,377.80282
2023-03-05T14:20:47.596Z,365.91781
2023-03-05T14:25:49.377Z,371.77778
2023-03-05T14:30:51.192Z,360.21622
2023-03-05T14:35:52.801Z,374.76923
2023-03-05T14:40:54.506Z,377.80282
2023-03-05T14:45:56.318Z,380.87943
2023-03-05T14:50:57.784Z,384
2023-03-05T14:55:59.659Z,380.87943
2023-03-05T15:01:01.379Z,390.37681
2023-03-05T15:06:03.144Z,377.80282
2023-03-05T15:11:05.090Z,371.77778
2023-03-05T15:16:06.772Z,377.80282
2023-03-05T15:21:08.534Z,365.91781
2023-03-05T15:26:10.486Z,371.77778
2023-03-05T15:31:12.280Z,360.21622
2023-03-05T15:36:14.020Z,351.94702
2023-03-05T15:41:15.842Z,346.61438
2023-03-05T15:46:17.597Z,357.42282
2023-03-05T15:51:19.414Z,349.26316
2023-03-05T15:56:20.992Z,341.41935
2023-03-05T16:01:22.744Z,344
2023-03-05T16:06:24.461Z,346.61438
2023-03-05T16:11:26.500Z,349.26316
2023-03-05T16:16:28.032Z,338.87179
2023-03-05T16:21:29.524Z,346.61438
2023-03-05T16:26:30.996Z,344
2023-03-05T16:31:32.883Z,341.41935
2023-03-05T16:36:34.449Z,344
2023-03-05T16:41:36.202Z,344
2023-03-05T16:46:37.748Z,333.87342
2023-03-05T16:51:39.239Z,336.35669
2023-03-05T16:56:40.714Z,324.24691
2023-03-05T17:01:42.155Z,331.42138
2023-03-05T17:06:43.656Z,326.6087
2023-03-05T17:11:45.309Z,319.60976
2023-03-05T17:16:46.860Z,306.35294
2023-03-05T17:21:48.300Z,321.91411
2023-03-05T17:26:49.850Z,306.35294
2023-03-05T17:31:51.433Z,302.13953
2023-03-05T17:36:52.881Z,296
2023-03-05T17:41:54.386Z,288.13408
2023-03-05T17:46:55.982Z,282.46154
2023-03-05T17:51:57.394Z,284.33149
2023-03-05T17:56:58.853Z,269.92593
2023-03-05T18:02:00.416Z,269.92593
2023-03-05T18:07:01.964Z,282.46154
2023-03-05T18:12:03.433Z,268.21053
2023-03-05T18:17:05.025Z,271.65957
2023-03-05T18:22:06.512Z,273.41176
2023-03-05T18:27:08.109Z,276.97297
2023-03-05T18:32:10.224Z,278.78261
2023-03-05T18:37:11.834Z,290.06742
2023-03-05T18:42:13.451Z,312.86228
2023-03-05T18:47:14.908Z,308.49704
2023-03-05T18:52:16.464Z,306.35294
2023-03-05T18:57:17.910Z,304.23392
2023-03-05T19:02:19.404Z,306.35294
2023-03-05T19:07:20.936Z,304.23392
2023-03-05T19:12:22.447Z,300.06936
2023-03-05T19:17:23.883Z,308.49704
2023-03-05T19:22:25.681Z,302.13953
2023-03-05T19:27:27.403Z,310.66667
2023-03-05T19:37:29.366Z,300.06936
2023-03-05T19:42:30.840Z,310.66667
2023-03-05T19:47:32.343Z,298.02299
2023-03-05T19:52:33.923Z,304.23392
2023-03-05T19:57:35.370Z,304.23392
2023-03-05T20:02:36.897Z,302.13953
2023-03-05T20:07:38.332Z,296
2023-03-05T20:12:40.056Z,304.23392
2023-03-05T20:17:41.502Z,298.02299
2023-03-05T20:22:43.005Z,292.0226
2023-03-05T20:27:44.478Z,268.21053
2023-03-05T20:32:45.940Z,261.52577
2023-03-05T20:37:47.497Z,255.11111
2023-03-05T20:42:48.967Z,253.54774
2023-03-05T20:47:50.437Z,248.9505
2023-03-05T20:52:51.924Z,247.44828
2023-03-05T20:57:53.611Z,248.9505
2023-03-05T21:02:55.025Z,253.54774
2023-03-05T21:07:56.556Z,264.83333
2023-03-05T21:13:00.607Z,266.51309
2023-03-05T21:18:02.372Z,259.89744
2023-03-05T21:23:03.851Z,261.52577
2023-03-05T21:28:05.314Z,259.89744
2023-03-05T21:33:06.816Z,263.17098
2023-03-05T21:38:08.300Z,259.89744
2023-03-05T21:43:09.943Z,258.28571
2023-03-05T21:48:11.353Z,256.69036
2023-03-05T21:53:12.818Z,255.11111
2023-03-05T21:58:14.273Z,259.89744
2023-03-05T22:03:15.741Z,264.83333
2023-03-05T22:08:17.253Z,263.17098
2023-03-05T22:13:18.793Z,261.52577
2023-03-05T22:18:20.356Z,263.17098
2023-03-05T22:23:21.901Z,259.89744
2023-03-05T22:28:23.466Z,258.28571
2023-03-05T22:33:24.956Z,263.17098
2023-03-05T22:38:26.512Z,261.52577
2023-03-05T22:43:28.022Z,261.52577
2023-03-05T22:48:29.582Z,259.89744
2023-03-05T22:53:31.133Z,263.17098
2023-03-05T22:58:32.722Z,263.17098
2023-03-05T23:03:34.244Z,261.52577
2023-03-05T23:08:35.769Z,264.83333
2023-03-05T23:13:37.274Z,264.83333
2023-03-05T23:18:38.814Z,261.52577
2023-03-05T23:23:40.330Z,259.89744
2023-03-05T23:28:41.768Z,255.11111
2023-03-05T23:33:43.278Z,255.11111
2023-03-05T23:38:44.757Z,253.54774
2023-03-05T23:43:46.337Z,248.9505
2023-03-05T23:48:47.803Z,240.15385
2023-03-05T23:53:49.397Z,230.51163
2023-03-05T23:58:50.934Z,216.56637
